Novorossiyka, Russia
Current Conditions -  °F | °C
As of 1:00 AM on Saturday 25 Oct 2014 (Local Time) from UHBB Reporting Station
Clear Clear  
Wind Chill: 21°   Ceiling: Unl
Heat Index: 27°   Visibility: 4mi
Dew Point: 25°   Wind: 4mph
Humidity: 93%   Direction: 350°N
Pressure: 29.85"   Gusts: NA
Location:  52.15°N, 129.47°E
Report Text: UHBB 241600Z 35002MPS 7000 NSC M03/M04 Q1011 NOSIG RMKQFE741/0988 36090060
Loading
Personal Weather Stations






























Interactive Weather Map
Tropical Storm Tracking
New forecast layout! Learn more

10-Day Weather Forecast

Advertisements
Track Severe Weather on mobile